Time;durP1;ratioP1;P1;durP2;ratioP2;P2;SDS_P1;SDS_P2;PMS_P1;PMS_P2;Temp;Humidity;BMP_temperature;BMP_pressure;BME280_temperature;BME280_humidity;BME280_pressure;Samples;Min_cycle;Max_cycle;Signal;HPM_P1;HPM_P2
2024/04/06 00:01:39;;;;;;;10.98;2.72;;;11.60;99.90;;;;;;4985102;28;20515;-67
2024/04/06 00:04:05;;;;;;;11.00;3.08;;;11.60;99.90;;;;;;4982464;28;20305;-67
2024/04/06 00:06:31;;;;;;;12.77;2.50;;;11.60;99.90;;;;;;4984461;28;20608;-67
2024/04/06 00:08:56;;;;;;;12.43;2.78;;;11.60;99.90;;;;;;4985973;28;20038;-67
2024/04/06 00:11:22;;;;;;;11.88;2.90;;;11.60;99.90;;;;;;4971401;28;20042;-68
2024/04/06 00:13:48;;;;;;;10.82;3.15;;;11.50;99.90;;;;;;5013909;28;20378;-67
2024/04/06 00:16:14;;;;;;;10.27;2.80;;;11.50;99.90;;;;;;4985483;28;20081;-67
2024/04/06 00:18:39;;;;;;;9.70;2.30;;;11.50;99.90;;;;;;4981201;28;20093;-67
2024/04/06 00:21:06;;;;;;;13.98;3.35;;;11.40;99.90;;;;;;4984096;28;20038;-67
2024/04/06 00:23:31;;;;;;;10.32;2.58;;;11.40;99.90;;;;;;4979406;28;20042;-67
2024/04/06 00:25:57;;;;;;;14.10;2.85;;;11.40;99.90;;;;;;4986073;28;20035;-67
2024/04/06 00:28:22;;;;;;;10.38;2.67;;;11.40;99.90;;;;;;5014057;28;20096;-67
2024/04/06 00:30:49;;;;;;;8.57;1.95;;;11.40;99.90;;;;;;4983112;28;20057;-67
2024/04/06 00:33:14;;;;;;;12.15;2.88;;;11.30;99.90;;;;;;4982973;28;20148;-67
2024/04/06 00:35:40;;;;;;;10.63;2.67;;;11.30;99.90;;;;;;4981242;28;20441;-67
2024/04/06 00:38:06;;;;;;;13.15;2.70;;;11.30;99.90;;;;;;4984544;28;20057;-67
2024/04/06 00:40:32;;;;;;;12.40;2.50;;;11.30;99.90;;;;;;4981285;28;20042;-67
2024/04/06 00:42:58;;;;;;;8.43;3.17;;;11.30;99.90;;;;;;5014500;28;20038;-67
2024/04/06 00:45:23;;;;;;;13.90;2.33;;;11.30;99.90;;;;;;4985835;28;20088;-67
2024/04/06 00:47:49;;;;;;;10.35;2.17;;;11.30;99.90;;;;;;4983042;28;20043;-67
2024/04/06 00:50:15;;;;;;;14.35;2.75;;;11.30;99.90;;;;;;4984439;28;20026;-67
2024/04/06 00:52:41;;;;;;;17.65;3.60;;;11.30;99.90;;;;;;4984831;28;20195;-67
2024/04/06 00:55:07;;;;;;;12.10;2.88;;;11.30;99.90;;;;;;4987559;28;20158;-67
2024/04/06 00:57:33;;;;;;;12.20;2.60;;;11.30;99.90;;;;;;4983599;28;20092;-67
2024/04/06 00:59:59;;;;;;;10.10;2.88;;;11.30;99.90;;;;;;4987060;28;20489;-67
2024/04/06 01:02:25;;;;;;;9.45;2.72;;;11.30;99.90;;;;;;4985650;28;20190;-67
2024/04/06 01:04:51;;;;;;;10.98;2.92;;;11.30;99.90;;;;;;4982967;28;20035;-67
2024/04/06 01:07:17;;;;;;;8.73;2.05;;;11.30;99.90;;;;;;4986598;28;20037;-67
2024/04/06 01:09:42;;;;;;;8.38;2.25;;;11.50;99.90;;;;;;4982434;28;20192;-67
2024/04/06 01:12:08;;;;;;;13.02;2.75;;;11.30;99.90;;;;;;4987182;28;20552;-67
2024/04/06 01:14:34;;;;;;;12.02;2.90;;;11.20;99.90;;;;;;4986393;28;20042;-67
2024/04/06 01:17:00;;;;;;;11.23;2.75;;;11.20;99.90;;;;;;5018468;28;20054;-67
2024/04/06 01:19:25;;;;;;;6.40;2.00;;;11.20;99.90;;;;;;4988022;28;20116;-67
2024/04/06 01:21:51;;;;;;;11.73;2.70;;;11.20;99.90;;;;;;4986034;28;20043;-66
2024/04/06 01:24:30;;;;;;;7.88;2.53;;;11.40;99.90;;;;;;5020106;28;20536;-67
2024/04/06 01:26:57;;;;;;;13.32;2.65;;;11.20;99.90;;;;;;5017381;28;20489;-67
2024/04/06 01:29:25;;;;;;;13.60;2.30;;;11.20;99.90;;;;;;4987046;28;20513;-68
2024/04/06 01:31:51;;;;;;;9.52;2.65;;;11.10;99.90;;;;;;5017593;28;20034;-67
2024/04/06 01:34:16;;;;;;;11.48;2.35;;;11.30;99.90;;;;;;4982475;28;20469;-67
2024/04/06 01:36:42;;;;;;;11.35;3.03;;;11.10;99.90;;;;;;5017403;28;20093;-67
2024/04/06 01:39:08;;;;;;;9.55;2.33;;;11.10;99.90;;;;;;4987706;28;20053;-68
2024/04/06 01:41:38;;;;;;;10.05;2.42;;;11.20;99.90;;;;;;4984401;28;20043;-67
2024/04/06 01:44:05;;;;;;;12.60;3.00;;;11.20;99.90;;;;;;4985769;28;20088;-67
2024/04/06 01:46:31;;;;;;;10.57;2.50;;;11.20;99.90;;;;;;4987310;28;20519;-67
2024/04/06 01:48:57;;;;;;;12.93;2.60;;;11.20;99.90;;;;;;4986676;28;20046;-67
2024/04/06 01:51:23;;;;;;;7.93;1.92;;;11.20;99.90;;;;;;4969095;28;20046;-67
2024/04/06 01:53:48;;;;;;;10.13;2.25;;;11.20;99.90;;;;;;4989233;28;20115;-67
2024/04/06 01:56:14;;;;;;;9.30;2.70;;;11.20;99.90;;;;;;4984311;28;20517;-67
2024/04/06 01:58:40;;;;;;;11.20;2.40;;;11.40;99.90;;;;;;4988097;28;20163;-67
2024/04/06 02:01:05;;;;;;;9.60;2.75;;;11.20;99.90;;;;;;4986221;28;20051;-67
2024/04/06 02:03:31;;;;;;;13.10;2.55;;;11.30;99.90;;;;;;4983969;28;20046;-68
2024/04/06 02:05:57;;;;;;;9.25;3.15;;;11.20;99.90;;;;;;4988004;28;20065;-67
2024/04/06 02:08:23;;;;;;;11.45;2.78;;;11.30;99.90;;;;;;4984583;28;20053;-67
2024/04/06 02:10:49;;;;;;;11.90;2.67;;;11.30;99.90;;;;;;4986723;28;20524;-67
2024/04/06 02:13:14;;;;;;;11.13;2.72;;;11.30;99.90;;;;;;4984223;28;20046;-67
2024/04/06 02:15:40;;;;;;;14.68;2.55;;;11.30;99.90;;;;;;4974782;28;20049;-67
2024/04/06 02:18:06;;;;;;;11.85;3.00;;;11.30;99.90;;;;;;4989057;28;20178;-67
2024/04/06 02:20:31;;;;;;;10.23;2.55;;;11.40;99.90;;;;;;4987478;28;20038;-67
2024/04/06 02:22:57;;;;;;;11.30;2.80;;;11.40;99.90;;;;;;4988898;28;20453;-67
2024/04/06 02:25:23;;;;;;;14.02;3.03;;;11.40;99.90;;;;;;4986610;28;20034;-67
2024/04/06 02:27:49;;;;;;;14.43;3.55;;;11.40;99.90;;;;;;4987742;28;20050;-67
2024/04/06 02:30:15;;;;;;;13.65;2.63;;;11.40;99.90;;;;;;4985164;28;20089;-67
2024/04/06 02:32:40;;;;;;;14.63;3.25;;;11.40;99.90;;;;;;4986909;28;20417;-67
2024/04/06 02:35:06;;;;;;;8.93;2.85;;;11.50;99.90;;;;;;4988024;28;20038;-67
2024/04/06 02:37:32;;;;;;;9.55;3.80;;;11.60;99.90;;;;;;4984928;28;20043;-67
2024/04/06 02:39:58;;;;;;;8.45;2.70;;;11.50;99.90;;;;;;4984964;28;20050;-67
2024/04/06 02:42:23;;;;;;;12.60;3.30;;;11.50;99.90;;;;;;4984488;28;20089;-67
2024/04/06 02:44:49;;;;;;;13.82;2.90;;;11.50;99.90;;;;;;5020724;28;20479;-67
2024/04/06 02:47:15;;;;;;;8.90;2.88;;;11.50;99.90;;;;;;4985430;28;20304;-67
2024/04/06 02:49:41;;;;;;;8.18;2.20;;;11.60;99.90;;;;;;4986232;28;20038;-67
2024/04/06 02:52:07;;;;;;;9.30;2.25;;;11.60;99.90;;;;;;4984544;28;20384;-67
2024/04/06 02:54:33;;;;;;;8.45;2.33;;;11.50;99.90;;;;;;4984582;28;20070;-67
2024/04/06 02:56:59;;;;;;;8.85;2.35;;;11.50;99.90;;;;;;4986143;28;20384;-67
2024/04/06 02:59:26;;;;;;;9.60;2.65;;;11.50;99.90;;;;;;4984526;28;20042;-67
2024/04/06 03:01:52;;;;;;;8.50;2.97;;;11.50;99.90;;;;;;4986767;28;20049;-67
2024/04/06 03:04:18;;;;;;;7.53;2.58;;;11.40;99.90;;;;;;4987552;28;20485;-67
2024/04/06 03:06:43;;;;;;;9.60;3.25;;;11.40;99.90;;;;;;4984035;28;20039;-67
2024/04/06 03:09:09;;;;;;;9.40;2.38;;;11.50;99.90;;;;;;4987238;28;20046;-67
2024/04/06 03:11:34;;;;;;;7.75;2.67;;;11.40;99.90;;;;;;4985058;28;20053;-67
2024/04/06 03:14:00;;;;;;;12.70;3.75;;;11.40;99.90;;;;;;4987986;28;20563;-67
2024/04/06 03:16:26;;;;;;;5.05;2.50;;;11.40;99.90;;;;;;4985553;28;20114;-67
2024/04/06 03:18:52;;;;;;;6.47;2.90;;;11.40;99.90;;;;;;4990010;28;20042;-67
2024/04/06 03:21:17;;;;;;;10.88;2.97;;;11.30;99.90;;;;;;4986654;28;20035;-67
2024/04/06 03:23:55;;;;;;;6.45;3.55;;;11.40;99.90;;;;;;4984069;28;20034;-67
2024/04/06 03:26:21;;;;;;;7.85;3.70;;;11.40;99.90;;;;;;4982554;28;20548;-67
2024/04/06 03:28:46;;;;;;;12.52;4.05;;;11.40;99.90;;;;;;5016966;28;20043;-67
2024/04/06 03:31:12;;;;;;;8.75;3.38;;;11.50;99.90;;;;;;4985300;28;20076;-67
2024/04/06 03:33:37;;;;;;;9.70;4.22;;;11.50;99.90;;;;;;4985580;28;20050;-67
2024/04/06 03:36:03;;;;;;;8.23;4.15;;;11.50;99.90;;;;;;4983896;28;20506;-67
2024/04/06 03:38:29;;;;;;;10.77;4.07;;;11.50;99.90;;;;;;4985695;28;20046;-67
2024/04/06 03:40:55;;;;;;;9.25;3.50;;;11.50;99.90;;;;;;4985131;28;20068;-67
2024/04/06 03:43:21;;;;;;;7.13;3.60;;;11.50;99.90;;;;;;4984229;28;20034;-68
2024/04/06 03:45:47;;;;;;;9.45;3.47;;;11.50;99.90;;;;;;4985054;28;20065;-67
2024/04/06 03:48:13;;;;;;;7.95;4.18;;;11.50;99.90;;;;;;4985611;28;20049;-67
2024/04/06 03:50:39;;;;;;;9.13;4.10;;;11.60;99.90;;;;;;4983339;28;20046;-67
2024/04/06 03:53:05;;;;;;;7.25;3.88;;;11.60;99.90;;;;;;4982727;28;20401;-67
2024/04/06 03:55:30;;;;;;;8.32;4.22;;;11.70;99.90;;;;;;4983480;28;20042;-67
2024/04/06 03:57:56;;;;;;;8.48;4.03;;;11.70;99.90;;;;;;4988033;28;20046;-67
2024/04/06 04:00:22;;;;;;;7.78;4.40;;;11.70;99.90;;;;;;4986935;28;20042;-67
2024/04/06 04:02:48;;;;;;;6.75;4.10;;;12.00;99.90;;;;;;4987215;28;20073;-67
2024/04/06 04:05:14;;;;;;;8.77;4.57;;;12.10;99.90;;;;;;4985768;28;20057;-67
2024/04/06 04:07:39;;;;;;;12.32;5.22;;;11.80;99.90;;;;;;4983064;28;20041;-67
2024/04/06 04:10:06;;;;;;;12.10;5.03;;;11.80;99.90;;;;;;4982225;28;20054;-67
2024/04/06 04:12:35;;;;;;;6.95;4.50;;;11.80;99.90;;;;;;4982682;28;20492;-67
2024/04/06 04:15:05;;;;;;;7.95;4.53;;;11.80;99.90;;;;;;4985527;28;20137;-67
2024/04/06 04:17:32;;;;;;;6.75;4.20;;;11.90;99.90;;;;;;5017897;28;20050;-67
2024/04/06 04:19:58;;;;;;;7.38;4.00;;;11.90;99.90;;;;;;4984303;28;20489;-67
2024/04/06 04:22:24;;;;;;;9.35;4.97;;;11.90;99.90;;;;;;4988043;28;20041;-67
2024/04/06 04:24:50;;;;;;;8.07;4.35;;;11.90;99.90;;;;;;4986831;28;20030;-67
2024/04/06 04:27:16;;;;;;;8.15;4.43;;;12.20;99.90;;;;;;5016617;28;20180;-67
2024/04/06 04:29:42;;;;;;;11.15;4.95;;;12.00;99.90;;;;;;4982344;28;20126;-67
2024/04/06 04:32:08;;;;;;;8.57;4.90;;;12.10;99.90;;;;;;4982968;28;20074;-67
2024/04/06 04:34:34;;;;;;;8.45;4.93;;;12.00;99.90;;;;;;4982903;28;20397;-67
2024/04/06 04:36:59;;;;;;;7.03;4.53;;;12.00;99.90;;;;;;4984701;28;20042;-67
2024/04/06 04:39:25;;;;;;;7.40;4.72;;;12.00;99.90;;;;;;4983422;28;20046;-67
2024/04/06 04:41:52;;;;;;;7.93;4.57;;;12.10;99.90;;;;;;4985121;28;20065;-67
2024/04/06 04:44:18;;;;;;;10.18;4.75;;;12.10;99.90;;;;;;4982683;28;20061;-67
2024/04/06 04:46:44;;;;;;;9.10;4.30;;;12.10;99.90;;;;;;4982324;28;20485;-67
2024/04/06 04:49:09;;;;;;;5.03;4.00;;;12.10;99.90;;;;;;4982798;28;20385;-67
2024/04/06 04:51:35;;;;;;;7.07;4.50;;;12.10;99.90;;;;;;5014509;28;20035;-67
2024/04/06 04:54:00;;;;;;;9.82;4.97;;;12.20;99.90;;;;;;4983213;28;20038;-68
2024/04/06 04:56:26;;;;;;;8.27;4.65;;;12.20;99.90;;;;;;4982859;28;20456;-67
2024/04/06 04:58:52;;;;;;;8.23;5.32;;;12.20;99.90;;;;;;4984882;28;20034;-67
2024/04/06 05:01:17;;;;;;;5.82;4.28;;;12.20;99.90;;;;;;4979446;28;20126;-67
2024/04/06 05:03:43;;;;;;;7.22;4.63;;;12.30;99.90;;;;;;4984524;28;20058;-67
2024/04/06 05:06:10;;;;;;;5.88;4.47;;;12.30;99.90;;;;;;4985373;28;20034;-67
2024/04/06 05:08:36;;;;;;;8.68;4.05;;;12.30;99.90;;;;;;4981945;28;20038;-67
2024/04/06 05:11:02;;;;;;;8.60;3.85;;;12.30;99.90;;;;;;4984651;28;20042;-67
2024/04/06 05:13:27;;;;;;;7.90;4.47;;;12.40;99.90;;;;;;4986215;28;20066;-67
2024/04/06 05:15:54;;;;;;;6.25;3.63;;;12.30;99.90;;;;;;4982076;28;20125;-67
2024/04/06 05:18:21;;;;;;;7.10;4.35;;;12.40;99.90;;;;;;4982870;28;20035;-67
2024/04/06 05:20:55;;;;;;;7.10;3.67;;;12.40;99.90;;;;;;4982549;28;20038;-67
2024/04/06 05:23:22;;;;;;;4.65;3.70;;;12.50;99.90;;;;;;4982891;28;20039;-67
2024/04/06 05:25:50;;;;;;;7.18;4.43;;;12.60;99.90;;;;;;4985526;28;20073;-67
2024/04/06 05:28:20;;;;;;;11.48;4.05;;;12.80;99.90;;;;;;4982633;28;20055;-67
2024/04/06 05:30:49;;;;;;;8.98;4.63;;;12.60;99.90;;;;;;4985139;28;20417;-67
2024/04/06 05:33:15;;;;;;;6.45;3.85;;;12.70;99.90;;;;;;4982104;28;20097;-67
2024/04/06 05:35:47;;;;;;;5.70;4.07;;;12.80;99.90;;;;;;4982825;28;20039;-67
2024/04/06 05:38:12;;;;;;;6.32;4.65;;;12.80;99.90;;;;;;4981049;28;20926;-67
2024/04/06 05:40:39;;;;;;;7.20;3.90;;;12.90;99.90;;;;;;4983927;28;20030;-67
2024/04/06 05:43:08;;;;;;;6.95;3.75;;;13.00;99.90;;;;;;4987324;28;20034;-67
2024/04/06 05:45:36;;;;;;;5.45;3.22;;;13.00;99.90;;;;;;4985535;28;20034;-67
2024/04/06 05:48:05;;;;;;;4.68;3.17;;;13.20;99.90;;;;;;4982598;28;20050;-67
2024/04/06 05:50:35;;;;;;;5.25;2.95;;;13.10;99.90;;;;;;4985420;28;20125;-67
2024/04/06 05:53:03;;;;;;;5.10;3.05;;;13.30;99.90;;;;;;4980353;28;20481;-67
2024/04/06 05:55:33;;;;;;;3.47;2.28;;;13.40;99.90;;;;;;4981168;28;20065;-67
2024/04/06 05:57:58;;;;;;;5.72;2.60;;;13.40;99.90;;;;;;4984772;28;20046;-67
2024/04/06 06:00:24;;;;;;;5.25;2.38;;;13.30;99.90;;;;;;4981729;28;20031;-67
2024/04/06 06:02:52;;;;;;;4.57;2.95;;;13.40;99.90;;;;;;4985653;28;20141;-67
2024/04/06 06:05:19;;;;;;;4.15;2.10;;;13.30;99.90;;;;;;4988659;28;20042;-67
2024/04/06 06:07:45;;;;;;;7.13;3.25;;;13.40;99.90;;;;;;4985216;28;20100;-67
2024/04/06 06:10:10;;;;;;;4.97;2.50;;;13.40;99.90;;;;;;4981450;28;20046;-68
2024/04/06 06:12:36;;;;;;;4.18;2.53;;;13.40;99.90;;;;;;4987415;28;20509;-67
2024/04/06 06:15:02;;;;;;;3.97;2.33;;;13.40;99.90;;;;;;4985007;28;20611;-67
2024/04/06 06:17:28;;;;;;;2.47;2.13;;;13.50;99.90;;;;;;4985836;28;20078;-67
2024/04/06 06:19:54;;;;;;;3.97;2.30;;;13.70;99.90;;;;;;4985227;28;20081;-68
2024/04/06 06:22:19;;;;;;;5.90;2.50;;;14.10;99.90;;;;;;4987726;28;20501;-68
2024/04/06 06:24:45;;;;;;;7.00;2.28;;;14.30;99.90;;;;;;4986726;28;20046;-68
2024/04/06 06:27:11;;;;;;;6.72;2.22;;;14.20;99.90;;;;;;4986706;28;20047;-67
2024/04/06 06:29:38;;;;;;;3.88;1.80;;;14.20;99.90;;;;;;4985130;28;20465;-67
2024/04/06 06:32:04;;;;;;;4.40;1.90;;;14.60;99.90;;;;;;4984565;28;20045;-67
2024/04/06 06:34:30;;;;;;;3.15;1.73;;;15.40;99.90;;;;;;4985463;28;20038;-68
2024/04/06 06:36:56;;;;;;;3.38;1.35;;;16.50;99.90;;;;;;4984562;28;20125;-68
2024/04/06 06:39:22;;;;;;;2.58;1.27;;;17.90;99.90;;;;;;4985360;28;20401;-66
2024/04/06 06:41:47;;;;;;;3.38;1.17;;;19.20;99.90;;;;;;4985949;28;20061;-66
2024/04/06 06:44:13;;;;;;;1.75;1.10;;;20.30;99.90;;;;;;4984552;28;20045;-66
2024/04/06 06:46:39;;;;;;;2.05;1.13;;;20.50;99.90;;;;;;4984392;28;20061;-66
2024/04/06 06:49:05;;;;;;;2.92;1.45;;;19.80;99.90;;;;;;4984478;28;20050;-66
2024/04/06 06:51:30;;;;;;;1.92;1.30;;;19.10;99.90;;;;;;4981075;28;20041;-66
2024/04/06 06:53:56;;;;;;;2.60;1.23;;;18.50;99.90;;;;;;4982506;28;20133;-66
2024/04/06 06:56:22;;;;;;;4.13;1.42;;;17.90;99.90;;;;;;4986094;28;20027;-66
2024/04/06 06:58:49;;;;;;;5.90;1.55;;;17.50;99.90;;;;;;4986220;28;20633;-66
2024/04/06 07:01:15;;;;;;;2.83;1.80;;;17.10;99.90;;;;;;4987040;28;20049;-66
2024/04/06 07:03:40;;;;;;;3.25;1.58;;;16.80;99.90;;;;;;4983435;28;20035;-66
2024/04/06 07:06:08;;;;;;;3.58;1.60;;;16.70;99.90;;;;;;5015474;28;20043;-66
2024/04/06 07:08:33;;;;;;;2.55;1.50;;;16.70;99.90;;;;;;4985776;28;20046;-66
2024/04/06 07:11:03;;;;;;;4.97;1.88;;;16.60;99.90;;;;;;5017054;28;20513;-66
2024/04/06 07:13:28;;;;;;;3.80;1.60;;;16.80;99.90;;;;;;4983107;28;20046;-66
2024/04/06 07:16:07;;;;;;;3.80;1.52;;;17.00;99.90;;;;;;4980807;28;20047;-66
2024/04/06 07:18:34;;;;;;;3.40;1.30;;;17.10;99.90;;;;;;4983106;28;20042;-66
2024/04/06 07:21:00;;;;;;;1.63;1.45;;;17.10;99.90;;;;;;4984575;28;20054;-66
2024/04/06 07:23:26;;;;;;;4.68;1.45;;;17.10;99.90;;;;;;4983082;28;20038;-66
2024/04/06 07:25:52;;;;;;;3.25;1.80;;;17.00;99.90;;;;;;5016248;28;20046;-66
2024/04/06 07:28:18;;;;;;;2.55;1.25;;;16.80;99.90;;;;;;4982444;28;20535;-66
2024/04/06 07:30:44;;;;;;;2.35;1.23;;;16.80;99.90;;;;;;4983011;28;20042;-66
2024/04/06 07:33:09;;;;;;;3.63;1.10;;;16.70;99.90;;;;;;4982345;28;20138;-66
2024/04/06 07:35:35;;;;;;;6.55;2.00;;;16.80;99.90;;;;;;4985546;28;20046;-66
2024/04/06 07:38:01;;;;;;;4.82;1.90;;;16.90;99.90;;;;;;4983607;28;20088;-66
2024/04/06 07:40:27;;;;;;;2.20;1.20;;;17.00;99.90;;;;;;4982495;28;20042;-66
2024/04/06 07:42:52;;;;;;;2.95;1.10;;;17.00;99.90;;;;;;4982947;28;20055;-66
2024/04/06 07:45:18;;;;;;;4.82;1.55;;;17.30;99.90;;;;;;4983516;28;20038;-66
2024/04/06 07:47:44;;;;;;;2.92;1.30;;;17.40;99.90;;;;;;4980505;28;20041;-66
2024/04/06 07:50:09;;;;;;;3.90;1.35;;;17.50;99.90;;;;;;4983283;28;20492;-66
2024/04/06 07:52:35;;;;;;;4.50;1.15;;;17.60;99.90;;;;;;4983464;28;20133;-66
2024/04/06 07:55:01;;;;;;;2.28;1.20;;;17.80;99.90;;;;;;4983918;28;20743;-66
2024/04/06 07:57:28;;;;;;;2.67;1.10;;;17.80;99.90;;;;;;4982213;28;20042;-67
2024/04/06 07:59:55;;;;;;;4.60;2.05;;;17.90;99.90;;;;;;4983353;28;20174;-67
2024/04/06 08:02:21;;;;;;;2.88;1.20;;;18.00;99.90;;;;;;4984505;28;20053;-66
2024/04/06 08:04:47;;;;;;;3.80;1.50;;;18.10;99.90;;;;;;4980777;28;20039;-66
2024/04/06 08:07:13;;;;;;;2.47;1.45;;;18.20;99.90;;;;;;4985223;28;20121;-66
2024/04/06 08:09:38;;;;;;;6.50;1.92;;;18.20;99.90;;;;;;4981219;28;20366;-67
2024/04/06 08:12:04;;;;;;;3.58;1.80;;;18.30;99.90;;;;;;4984368;28;20035;-67
2024/04/06 08:14:29;;;;;;;5.13;2.25;;;18.20;99.90;;;;;;4986204;28;20038;-66
2024/04/06 08:16:56;;;;;;;3.55;1.50;;;18.10;99.90;;;;;;4981888;28;20050;-66
2024/04/06 08:19:21;;;;;;;2.58;1.10;;;18.30;99.90;;;;;;4981552;28;20121;-66
2024/04/06 08:21:47;;;;;;;4.82;1.30;;;18.50;99.90;;;;;;4982472;28;20145;-66
2024/04/06 08:24:12;;;;;;;3.35;1.15;;;18.80;99.90;;;;;;4983884;28;20042;-66
2024/04/06 08:26:38;;;;;;;3.35;2.08;;;19.00;99.90;;;;;;5013924;28;20050;-66
2024/04/06 08:29:04;;;;;;;3.90;1.50;;;19.00;99.90;;;;;;4984378;28;20054;-66
2024/04/06 08:31:29;;;;;;;2.20;1.10;;;19.10;99.90;;;;;;4983005;28;20117;-67
2024/04/06 08:33:55;;;;;;;4.07;1.70;;;19.40;99.90;;;;;;4980544;28;20061;-67
2024/04/06 08:36:21;;;;;;;3.78;1.17;;;19.60;99.90;;;;;;4984458;28;20565;-67
2024/04/06 08:38:46;;;;;;;2.60;1.40;;;19.90;99.90;;;;;;4983587;28;20042;-67
2024/04/06 08:41:12;;;;;;;1.92;0.88;;;20.20;99.90;;;;;;4980778;28;20118;-67
2024/04/06 08:43:43;;;;;;;2.15;1.20;;;20.40;99.90;;;;;;4968603;28;20096;-67
2024/04/06 08:46:09;;;;;;;4.53;1.65;;;20.40;99.90;;;;;;5017520;28;20042;-67
2024/04/06 08:48:35;;;;;;;2.17;1.58;;;20.10;99.90;;;;;;4982495;28;20090;-67
2024/04/06 08:51:03;;;;;;;1.65;1.10;;;20.00;99.90;;;;;;4980055;28;20046;-67
2024/04/06 08:53:30;;;;;;;3.33;1.30;;;19.80;99.90;;;;;;4983787;28;20049;-67
2024/04/06 08:55:59;;;;;;;3.28;1.48;;;19.70;99.90;;;;;;4982415;28;20050;-67
2024/04/06 08:58:26;;;;;;;2.83;1.55;;;19.70;99.90;;;;;;4980524;28;20138;-67
2024/04/06 09:00:54;;;;;;;5.55;1.73;;;19.90;99.90;;;;;;4984530;28;20385;-66
2024/04/06 09:03:20;;;;;;;6.32;1.27;;;20.00;99.90;;;;;;4984526;28;20104;-67
2024/04/06 09:05:45;;;;;;;4.70;1.38;;;20.20;99.90;;;;;;5015569;28;20686;-67
2024/04/06 09:08:15;;;;;;;4.88;1.25;;;20.50;99.90;;;;;;4980542;28;20070;-67
2024/04/06 09:10:41;;;;;;;2.53;1.17;;;20.70;99.90;;;;;;4980942;28;20507;-66
2024/04/06 09:13:08;;;;;;;3.83;1.33;;;20.90;99.90;;;;;;4981853;28;20050;-67
2024/04/06 09:15:34;;;;;;;3.05;2.08;;;21.00;99.90;;;;;;4985899;28;20048;-66
2024/04/06 09:18:01;;;;;;;2.95;1.10;;;21.10;99.90;;;;;;4990701;28;20133;-66
2024/04/06 09:20:26;;;;;;;2.60;1.23;;;21.40;99.90;;;;;;4968715;28;20117;-66
2024/04/06 09:22:55;;;;;;;4.03;1.15;;;21.50;99.90;;;;;;4984953;28;20121;-66
2024/04/06 09:25:24;;;;;;;3.85;1.45;;;21.60;99.90;;;;;;4984489;28;20042;-66
2024/04/06 09:27:50;;;;;;;3.05;0.80;;;21.60;99.90;;;;;;4983486;28;20477;-67
2024/04/06 09:30:24;;;;;;;3.10;1.20;;;21.60;99.90;;;;;;4986849;28;20047;-66
2024/04/06 09:32:54;;;;;;;2.05;1.08;;;21.70;99.90;;;;;;4988646;28;20042;-66
2024/04/06 09:35:19;;;;;;;3.90;1.42;;;21.70;99.90;;;;;;4985323;28;20065;-66
2024/04/06 09:37:47;;;;;;;2.35;1.00;;;21.90;99.90;;;;;;4984871;28;20038;-66
2024/04/06 09:40:14;;;;;;;3.72;1.00;;;22.00;99.90;;;;;;4989908;28;20034;-66
2024/04/06 09:42:41;;;;;;;2.83;1.15;;;22.10;99.90;;;;;;4984772;28;20086;-66
2024/04/06 09:45:07;;;;;;;2.50;1.33;;;22.10;99.90;;;;;;4984128;28;20461;-67
2024/04/06 09:47:33;;;;;;;6.68;1.05;;;22.10;99.90;;;;;;4986330;28;20030;-66
2024/04/06 09:49:59;;;;;;;4.32;1.23;;;22.20;99.90;;;;;;4966428;28;20058;-66
2024/04/06 09:52:28;;;;;;;2.08;0.95;;;22.40;99.90;;;;;;4983620;28;20042;-65
2024/04/06 09:54:54;;;;;;;3.03;1.13;;;22.40;99.90;;;;;;4979930;28;20081;-64
2024/04/06 09:57:21;;;;;;;2.80;0.90;;;22.50;99.90;;;;;;4984487;28;20046;-66
2024/04/06 09:59:47;;;;;;;3.33;1.42;;;22.50;99.90;;;;;;4984744;28;20045;-67
2024/04/06 10:02:23;;;;;;;3.67;1.17;;;22.40;99.90;;;;;;4987974;28;21488;-66
2024/04/06 10:04:56;;;;;;;2.63;1.30;;;22.40;99.90;;;;;;4984748;28;20030;-64
2024/04/06 10:07:30;;;;;;;2.22;1.10;;;22.60;99.90;;;;;;5015456;28;20038;-64
2024/04/06 10:10:06;;;;;;;4.03;1.08;;;22.70;99.90;;;;;;4985669;28;20530;-63
2024/04/06 10:12:47;;;;;;;3.22;1.00;;;22.80;99.90;;;;;;4984576;28;20039;-64
2024/04/06 10:15:18;;;;;;;2.15;0.95;;;22.80;99.90;;;;;;4985277;28;20142;-63
2024/04/06 10:17:58;;;;;;;2.50;1.05;;;22.80;99.90;;;;;;4985571;28;20502;-63
2024/04/06 10:20:26;;;;;;;3.17;0.90;;;22.90;99.90;;;;;;4985602;28;20046;-63
2024/04/06 10:22:51;;;;;;;4.72;0.93;;;23.00;99.90;;;;;;4989751;28;20057;-64
2024/04/06 10:25:23;;;;;;;3.00;1.20;;;23.20;99.90;;;;;;4986737;28;20039;-65
2024/04/06 10:27:57;;;;;;;4.03;1.10;;;23.10;99.90;;;;;;4984619;28;20047;-63
2024/04/06 10:30:24;;;;;;;3.03;1.00;;;23.10;99.90;;;;;;4985387;28;21817;-63
2024/04/06 10:32:50;;;;;;;3.80;1.00;;;23.00;99.90;;;;;;4985701;28;20113;-64
2024/04/06 10:35:15;;;;;;;3.03;1.13;;;23.00;99.90;;;;;;5015836;28;20258;-63
2024/04/06 10:37:41;;;;;;;3.83;0.80;;;23.10;99.90;;;;;;4984738;28;20459;-63
2024/04/06 10:40:09;;;;;;;1.83;0.90;;;23.20;99.90;;;;;;4983210;28;20089;-63
2024/04/06 10:42:38;;;;;;;4.63;1.15;;;23.30;99.90;;;;;;4986298;28;20031;-63
2024/04/06 10:45:04;;;;;;;2.95;0.80;;;23.10;99.90;;;;;;4981107;28;20497;-64
2024/04/06 10:47:30;;;;;;;2.25;1.08;;;23.10;99.90;;;;;;4984202;28;20061;-63
2024/04/06 10:49:55;;;;;;;3.40;1.33;;;23.10;99.90;;;;;;5015139;28;20050;-63
2024/04/06 10:52:22;;;;;;;4.72;1.20;;;23.10;99.90;;;;;;4983234;28;20030;-64
2024/04/06 10:54:49;;;;;;;2.22;1.02;;;23.10;99.90;;;;;;5011247;28;20042;-63
2024/04/06 10:57:16;;;;;;;3.38;0.93;;;23.00;99.90;;;;;;4977326;28;20058;-63
2024/04/06 10:59:41;;;;;;;2.95;1.05;;;22.90;99.90;;;;;;4983409;28;20397;-63
2024/04/06 11:02:07;;;;;;;4.78;1.10;;;22.90;99.90;;;;;;4983336;28;20047;-63
2024/04/06 11:04:40;;;;;;;3.75;1.20;;;22.80;99.90;;;;;;5015336;28;20053;-63
2024/04/06 11:07:06;;;;;;;3.22;1.25;;;22.80;99.90;;;;;;4983392;28;20166;-63
2024/04/06 11:09:35;;;;;;;2.38;0.90;;;22.60;99.90;;;;;;4981952;28;20046;-63
2024/04/06 11:12:01;;;;;;;3.28;1.10;;;22.60;99.90;;;;;;4983890;28;20185;-63
2024/04/06 11:14:27;;;;;;;1.30;0.80;;;22.60;99.90;;;;;;4981327;28;20046;-64
2024/04/06 11:16:53;;;;;;;6.03;1.27;;;22.60;99.90;;;;;;4983625;28;20065;-63
2024/04/06 11:19:20;;;;;;;3.90;1.65;;;22.60;99.90;;;;;;4982120;28;20043;-64
2024/04/06 11:21:46;;;;;;;2.90;1.50;;;22.50;99.90;;;;;;4985386;28;20049;-63
2024/04/06 11:24:13;;;;;;;3.50;1.20;;;22.50;99.90;;;;;;4982808;28;20117;-63
2024/04/06 11:26:39;;;;;;;1.70;0.93;;;22.60;99.90;;;;;;4983708;28;20133;-63
2024/04/06 11:29:04;;;;;;;3.72;0.90;;;22.60;99.90;;;;;;4984638;28;20524;-63
2024/04/06 11:31:32;;;;;;;3.60;1.95;;;22.70;99.90;;;;;;4968330;28;20374;-64
2024/04/06 11:33:59;;;;;;;4.95;1.20;;;22.80;99.90;;;;;;4984199;28;20046;-64
2024/04/06 11:36:28;;;;;;;3.25;1.10;;;22.90;99.90;;;;;;4982185;28;20043;-64
2024/04/06 11:38:54;;;;;;;4.70;1.10;;;22.90;99.90;;;;;;4986794;28;20050;-64
2024/04/06 11:41:20;;;;;;;2.42;1.30;;;23.00;99.90;;;;;;4981403;28;20038;-63
2024/04/06 11:43:45;;;;;;;2.47;0.80;;;23.00;99.90;;;;;;4982119;28;20424;-64
2024/04/06 11:46:11;;;;;;;5.00;1.00;;;23.00;99.90;;;;;;4984512;28;20132;-64
2024/04/06 11:48:37;;;;;;;3.35;0.95;;;23.00;99.90;;;;;;4983679;28;20048;-63
2024/04/06 11:51:03;;;;;;;2.75;1.00;;;23.00;99.90;;;;;;4982199;28;20046;-65
2024/04/06 11:53:34;;;;;;;2.25;1.25;;;23.00;99.90;;;;;;4982692;28;20035;-66
2024/04/06 11:56:00;;;;;;;4.65;0.60;;;23.00;99.90;;;;;;4981472;28;20497;-66
2024/04/06 11:58:26;;;;;;;1.65;0.90;;;23.00;99.90;;;;;;4985689;28;20066;-66
2024/04/06 12:00:52;;;;;;;3.10;0.80;;;23.10;99.90;;;;;;4985759;28;20122;-66
2024/04/06 12:03:18;;;;;;;1.70;0.80;;;23.10;99.90;;;;;;4985475;28;20200;-66
2024/04/06 12:05:44;;;;;;;2.58;1.00;;;23.10;99.90;;;;;;5015481;28;20047;-66
2024/04/06 12:08:10;;;;;;;2.25;1.00;;;23.10;99.90;;;;;;4983435;28;20063;-65
2024/04/06 12:10:36;;;;;;;1.73;0.80;;;23.10;99.90;;;;;;4982772;28;20603;-66
2024/04/06 12:13:02;;;;;;;4.97;0.80;;;23.20;99.90;;;;;;4983755;28;20046;-66
2024/04/06 12:15:27;;;;;;;2.03;0.90;;;23.40;99.90;;;;;;4983514;28;20193;-66
2024/04/06 12:17:53;;;;;;;3.42;0.80;;;23.50;99.90;;;;;;4983075;28;20519;-66
2024/04/06 12:20:18;;;;;;;2.67;1.38;;;23.40;99.90;;;;;;4979856;28;20375;-66
2024/04/06 12:22:44;;;;;;;2.38;0.70;;;23.50;99.90;;;;;;4983113;28;20045;-66
2024/04/06 12:25:10;;;;;;;2.33;0.80;;;23.50;99.90;;;;;;4981314;28;20485;-66
2024/04/06 12:27:36;;;;;;;1.70;0.98;;;23.40;99.90;;;;;;4982907;28;20384;-67
2024/04/06 12:30:04;;;;;;;5.07;0.77;;;23.40;99.90;;;;;;4985377;28;20046;-67
2024/04/06 12:32:30;;;;;;;3.30;0.88;;;23.30;99.90;;;;;;4982813;28;20046;-67
2024/04/06 12:34:55;;;;;;;1.85;0.80;;;23.30;99.90;;;;;;4983039;28;20054;-67
2024/04/06 12:37:21;;;;;;;2.95;1.00;;;23.30;99.90;;;;;;4984597;28;20931;-67
2024/04/06 12:39:47;;;;;;;3.38;0.73;;;23.40;99.90;;;;;;4983607;28;20039;-68
2024/04/06 12:42:12;;;;;;;5.25;3.70;;;23.50;99.50;;;;;;4981726;28;20038;-67